createdAt,value
2022-12-15T00:02:18.705Z,-4.42
2022-12-15T00:05:06.011Z,-4.40
2022-12-15T00:07:51.397Z,-4.37
2022-12-15T00:10:36.754Z,-4.35
2022-12-15T00:13:22.067Z,-4.37
2022-12-15T00:16:07.602Z,-4.37
2022-12-15T00:18:53.081Z,-4.37
2022-12-15T00:21:39.622Z,-4.36
2022-12-15T00:24:24.952Z,-4.35
2022-12-15T00:27:10.111Z,-4.38
2022-12-15T00:29:55.605Z,-4.39
2022-12-15T00:32:40.840Z,-4.39
2022-12-15T00:35:26.595Z,-4.39
2022-12-15T00:38:13.344Z,-4.38
2022-12-15T00:40:41.037Z,-4.37
2022-12-15T00:43:11.901Z,-4.35
2022-12-15T00:45:57.646Z,-4.36
2022-12-15T00:48:25.341Z,-4.41
2022-12-15T00:50:54.904Z,-4.45
2022-12-15T00:53:42.648Z,-4.52
2022-12-15T00:56:28.460Z,-4.57
2022-12-15T00:59:14.190Z,-4.63
2022-12-15T01:01:59.691Z,-4.64
2022-12-15T01:04:45.301Z,-4.67
2022-12-15T01:07:30.624Z,-4.66
2022-12-15T01:10:17.154Z,-4.63
2022-12-15T01:13:02.883Z,-4.61
2022-12-15T01:15:48.196Z,-4.61
2022-12-15T01:18:33.800Z,-4.60
2022-12-15T01:21:03.265Z,-4.61
2022-12-15T01:23:32.531Z,-4.63
2022-12-15T01:26:02.343Z,-4.67
2022-12-15T01:28:30.087Z,-4.72
2022-12-15T01:30:57.804Z,-4.76
2022-12-15T01:33:25.553Z,-4.79
2022-12-15T01:35:57.768Z,-4.80
2022-12-15T01:38:25.953Z,-4.83
2022-12-15T01:40:55.028Z,-4.91
2022-12-15T01:43:27.415Z,-4.95
2022-12-15T01:45:58.509Z,-4.98
2022-12-15T01:48:42.956Z,-5.02
2022-12-15T01:51:19.015Z,-5.05
2022-12-15T01:53:53.839Z,-5.03
2022-12-15T01:56:24.385Z,-5.02
2022-12-15T01:58:55.844Z,-5.01
2022-12-15T02:01:23.807Z,-5.01
2022-12-15T02:03:52.212Z,-5.02
2022-12-15T02:06:22.752Z,-5.02
2022-12-15T02:08:53.021Z,-5.01
2022-12-15T02:11:55.456Z,-5.00
2022-12-15T02:14:38.565Z,-4.98
2022-12-15T02:17:18.693Z,-5.00
2022-12-15T02:20:35.504Z,-5.01
2022-12-15T02:23:35.231Z,-5.00
2022-12-15T02:26:49.497Z,-4.99
2022-12-15T02:29:33.672Z,-4.96
2022-12-15T02:32:08.352Z,-4.94
2022-12-15T02:34:43.489Z,-4.94
2022-12-15T02:37:15.655Z,-4.96
2022-12-15T02:39:43.427Z,-4.98
2022-12-15T02:42:13.381Z,-4.99
2022-12-15T02:44:47.823Z,-5.01
2022-12-15T02:47:29.540Z,-5.01
2022-12-15T02:50:13.137Z,-5.01
2022-12-15T02:52:55.249Z,-5.01
2022-12-15T02:55:35.535Z,-5.00
2022-12-15T02:58:07.619Z,-5.01
2022-12-15T03:00:40.649Z,-5.02
2022-12-15T03:03:10.681Z,-5.04
2022-12-15T03:05:38.885Z,-5.02
2022-12-15T03:08:06.636Z,-5.03
2022-12-15T03:10:34.255Z,-5.03
2022-12-15T03:13:02.299Z,-5.02
2022-12-15T03:15:35.020Z,-5.05
2022-12-15T03:18:03.292Z,-5.05
2022-12-15T03:20:32.280Z,-5.05
2022-12-15T03:22:59.895Z,-5.05
2022-12-15T03:25:27.536Z,-5.08
2022-12-15T03:27:55.168Z,-5.08
2022-12-15T03:30:22.859Z,-5.10
2022-12-15T03:32:50.455Z,-5.13
2022-12-15T03:35:18.119Z,-5.13
2022-12-15T03:37:47.116Z,-5.15
2022-12-15T03:40:17.503Z,-5.25
2022-12-15T03:42:51.699Z,-5.36
2022-12-15T03:45:21.131Z,-5.37
2022-12-15T03:47:49.294Z,-5.35
2022-12-15T03:50:19.284Z,-5.33
2022-12-15T03:52:51.461Z,-5.32
2022-12-15T03:55:19.499Z,-5.32
2022-12-15T03:57:47.120Z,-5.33
2022-12-15T04:00:16.128Z,-5.31
2022-12-15T04:02:44.233Z,-5.32
2022-12-15T04:05:16.960Z,-5.33
2022-12-15T04:07:44.614Z,-5.35
2022-12-15T04:10:13.718Z,-5.36
2022-12-15T04:12:41.477Z,-5.38
2022-12-15T04:15:10.835Z,-5.38
2022-12-15T04:17:39.490Z,-5.39
2022-12-15T04:20:10.684Z,-5.42
2022-12-15T04:22:39.357Z,-5.43
2022-12-15T04:25:26.402Z,-5.44
2022-12-15T04:28:13.448Z,-5.42
2022-12-15T04:31:03.083Z,-5.43
2022-12-15T04:33:48.842Z,-5.45
2022-12-15T04:36:35.295Z,-5.42
2022-12-15T04:39:23.268Z,-5.41
2022-12-15T04:42:08.528Z,-5.38
2022-12-15T04:44:55.469Z,-5.36
2022-12-15T04:47:40.824Z,-5.34
2022-12-15T04:50:26.540Z,-5.31
2022-12-15T04:53:12.031Z,-5.30
2022-12-15T04:55:57.385Z,-5.29
2022-12-15T04:58:42.912Z,-5.28
2022-12-15T05:01:29.594Z,-5.26
2022-12-15T05:04:14.819Z,-5.25
2022-12-15T05:07:00.164Z,-5.24
2022-12-15T05:09:45.490Z,-5.22
2022-12-15T05:12:30.764Z,-5.23
2022-12-15T05:15:16.208Z,-5.21
2022-12-15T05:18:02.670Z,-5.24
2022-12-15T05:20:49.837Z,-5.29
2022-12-15T05:23:35.307Z,-5.33
2022-12-15T05:26:20.627Z,-5.34
2022-12-15T05:29:06.036Z,-5.36
2022-12-15T05:31:51.809Z,-5.38
2022-12-15T05:34:22.417Z,-5.37
2022-12-15T05:36:50.286Z,-5.37
2022-12-15T05:39:18.100Z,-5.37
2022-12-15T05:41:46.031Z,-5.36
2022-12-15T05:44:13.739Z,-5.38
2022-12-15T05:46:41.651Z,-5.36
2022-12-15T05:49:11.435Z,-5.38
2022-12-15T05:51:41.714Z,-5.38
2022-12-15T05:54:09.895Z,-5.38
2022-12-15T05:56:38.000Z,-5.39
2022-12-15T05:59:06.493Z,-5.42
2022-12-15T06:01:35.459Z,-5.44
2022-12-15T06:04:03.429Z,-5.43
2022-12-15T06:06:31.267Z,-5.41
2022-12-15T06:09:00.349Z,-5.40
2022-12-15T06:11:28.014Z,-5.43
2022-12-15T06:13:57.983Z,-5.43
2022-12-15T06:16:28.877Z,-5.41
2022-12-15T06:18:58.781Z,-5.40
2022-12-15T06:21:29.218Z,-5.38
2022-12-15T06:23:57.719Z,-5.34
2022-12-15T06:26:28.563Z,-5.34
2022-12-15T06:28:58.167Z,-5.34
2022-12-15T06:31:27.039Z,-5.38
2022-12-15T06:34:01.614Z,-5.41
2022-12-15T06:36:31.117Z,-5.43
2022-12-15T06:39:00.472Z,-5.43
2022-12-15T06:41:31.032Z,-5.44
2022-12-15T06:43:59.418Z,-5.43
2022-12-15T06:46:28.224Z,-5.42
2022-12-15T06:48:56.515Z,-5.41
2022-12-15T06:51:24.598Z,-5.43
2022-12-15T06:53:54.033Z,-5.46
2022-12-15T06:56:30.425Z,-5.43
2022-12-15T06:59:02.269Z,-5.42
2022-12-15T07:01:30.924Z,-5.42
2022-12-15T07:04:01.359Z,-5.37
2022-12-15T07:06:34.254Z,-5.35
2022-12-15T07:09:01.926Z,-5.36
2022-12-15T07:11:29.744Z,-5.34
2022-12-15T07:13:57.351Z,-5.35
2022-12-15T07:16:26.763Z,-5.37
2022-12-15T07:18:54.558Z,-5.38
2022-12-15T07:21:22.294Z,-5.41
2022-12-15T07:23:55.246Z,-5.44
2022-12-15T07:26:23.933Z,-5.45
2022-12-15T07:28:51.710Z,-5.43
2022-12-15T07:31:19.471Z,-5.46
2022-12-15T07:33:49.111Z,-5.48
2022-12-15T07:36:16.807Z,-5.46
2022-12-15T07:38:45.512Z,-5.43
2022-12-15T07:41:21.087Z,-5.45
2022-12-15T07:43:49.238Z,-5.45
2022-12-15T07:46:17.502Z,-5.44
2022-12-15T07:48:50.121Z,-5.44
2022-12-15T07:51:21.186Z,-5.46
2022-12-15T07:53:50.527Z,-5.46
2022-12-15T07:56:19.718Z,-5.50
2022-12-15T07:58:47.447Z,-5.55
2022-12-15T08:01:15.681Z,-5.59
2022-12-15T08:03:43.564Z,-5.59
2022-12-15T08:06:13.278Z,-5.56
2022-12-15T08:08:42.593Z,-5.53
2022-12-15T08:11:11.984Z,-5.51
2022-12-15T08:16:29.066Z,-5.37
2022-12-15T08:18:57.416Z,-5.31
2022-12-15T08:21:25.109Z,-5.25
2022-12-15T08:23:54.303Z,-5.16
2022-12-15T08:26:26.838Z,-5.12
2022-12-15T08:29:11.812Z,-5.08
2022-12-15T08:31:45.511Z,-4.99
2022-12-15T08:34:13.240Z,-4.95
2022-12-15T08:36:40.908Z,-4.91
2022-12-15T08:39:09.902Z,-4.87
2022-12-15T08:41:37.396Z,-4.79
2022-12-15T08:44:05.295Z,-4.75
2022-12-15T08:46:35.020Z,-4.68
2022-12-15T08:49:04.044Z,-4.61
2022-12-15T08:51:33.624Z,-4.54
2022-12-15T08:54:01.657Z,-4.47
2022-12-15T08:56:31.058Z,-4.38
2022-12-15T08:59:01.269Z,-4.31
2022-12-15T09:01:31.855Z,-4.23
2022-12-15T09:04:01.410Z,-4.14
2022-12-15T09:06:31.890Z,-4.03
2022-12-15T09:09:01.335Z,-3.89
2022-12-15T09:11:31.646Z,-3.74
2022-12-15T09:13:59.311Z,-3.60
2022-12-15T09:16:27.970Z,-3.43
2022-12-15T09:18:56.192Z,-3.23
2022-12-15T09:21:26.643Z,-3.07
2022-12-15T09:23:55.777Z,-2.91
2022-12-15T09:26:24.447Z,-2.77
2022-12-15T09:28:55.108Z,-2.56
2022-12-15T09:31:25.014Z,-2.42
2022-12-15T09:33:55.192Z,-2.24
2022-12-15T09:36:23.237Z,-2.11
2022-12-15T09:38:50.995Z,-2.03
2022-12-15T09:41:23.676Z,-1.95
2022-12-15T09:43:58.326Z,-1.79
2022-12-15T09:46:35.755Z,-1.55
2022-12-15T09:49:07.173Z,-1.38
2022-12-15T09:51:40.284Z,-1.24
2022-12-15T09:54:11.472Z,-1.05
2022-12-15T09:56:43.773Z,-0.84
2022-12-15T09:59:30.092Z,-0.64
2022-12-15T10:02:23.233Z,-0.47
2022-12-15T10:04:58.730Z,-0.33
2022-12-15T10:07:29.859Z,-0.21
2022-12-15T10:09:57.752Z,-0.04
2022-12-15T10:12:30.615Z,0.17
2022-12-15T10:15:13.376Z,0.28
2022-12-15T10:17:48.321Z,0.48
2022-12-15T10:20:20.429Z,0.68
2022-12-15T10:22:50.302Z,0.86
2022-12-15T10:25:29.429Z,0.91
2022-12-15T10:28:25.929Z,0.92
2022-12-15T10:31:00.101Z,1.01
2022-12-15T10:33:34.100Z,1.04
2022-12-15T10:36:02.306Z,1.15
2022-12-15T10:38:37.674Z,1.27
2022-12-15T10:41:07.206Z,1.46
2022-12-15T10:43:37.163Z,1.66
2022-12-15T10:46:13.734Z,1.85
2022-12-15T10:48:42.220Z,1.98
2022-12-15T10:51:18.094Z,2.11
2022-12-15T10:53:50.641Z,2.41
2022-12-15T10:56:26.128Z,2.77
2022-12-15T10:59:00.978Z,3.14
2022-12-15T11:01:31.760Z,3.30
2022-12-15T11:03:59.715Z,3.37
2022-12-15T11:06:29.914Z,3.62
2022-12-15T11:09:08.528Z,3.94
2022-12-15T11:12:03.716Z,3.81
2022-12-15T11:14:44.066Z,3.91
2022-12-15T11:17:17.354Z,4.28
2022-12-15T11:19:55.227Z,4.56
2022-12-15T11:22:38.436Z,5.06
2022-12-15T11:25:17.715Z,5.60
2022-12-15T11:27:46.189Z,6.09
2022-12-15T11:30:15.727Z,5.52
2022-12-15T11:32:48.850Z,5.05
2022-12-15T11:35:20.566Z,4.77
2022-12-15T11:37:52.920Z,4.64
2022-12-15T11:40:34.918Z,5.22
2022-12-15T11:43:14.004Z,5.92
2022-12-15T11:45:51.075Z,6.18
2022-12-15T11:48:23.384Z,6.40
2022-12-15T11:50:56.770Z,6.08
2022-12-15T11:53:57.846Z,6.37
2022-12-15T11:56:32.240Z,7.12
2022-12-15T11:59:23.309Z,7.03
2022-12-15T12:02:08.616Z,6.51
2022-12-15T12:04:50.737Z,5.90
2022-12-15T12:07:28.216Z,5.43
2022-12-15T12:10:10.043Z,5.01
2022-12-15T12:12:44.927Z,4.82
2022-12-15T12:15:27.791Z,4.70
2022-12-15T12:18:02.554Z,4.61
2022-12-15T12:20:42.997Z,4.41
2022-12-15T12:23:17.946Z,4.10
2022-12-15T12:26:01.105Z,3.96
2022-12-15T12:28:36.844Z,3.67
2022-12-15T12:31:06.776Z,3.63
2022-12-15T12:33:39.600Z,3.73
2022-12-15T12:36:12.083Z,3.55
2022-12-15T12:38:46.188Z,3.28
2022-12-15T12:41:27.312Z,3.06
2022-12-15T12:43:58.114Z,3.05
2022-12-15T12:46:31.070Z,2.99
2022-12-15T12:49:07.424Z,2.88
2022-12-15T12:51:37.775Z,2.77
2022-12-15T12:54:40.259Z,2.71
2022-12-15T12:57:31.686Z,2.68
2022-12-15T13:00:01.541Z,2.75
2022-12-15T13:05:39.076Z,2.81
2022-12-15T13:08:51.773Z,2.78
2022-12-15T13:12:03.138Z,2.91
2022-12-15T13:14:54.456Z,2.86
2022-12-15T13:17:32.135Z,2.79
2022-12-15T13:20:30.910Z,2.94
2022-12-15T13:23:32.234Z,3.03
2022-12-15T13:26:13.575Z,3.02
2022-12-15T13:28:45.902Z,3.12
2022-12-15T13:31:33.317Z,3.10
2022-12-15T13:34:16.928Z,3.07
2022-12-15T13:36:55.971Z,3.25
2022-12-15T13:39:52.873Z,3.48
2022-12-15T13:42:37.298Z,3.79
2022-12-15T13:45:16.096Z,4.02
2022-12-15T13:47:54.624Z,4.02
2022-12-15T13:50:32.716Z,3.95
2022-12-15T13:56:01.987Z,3.71
2022-12-15T13:58:34.727Z,3.65
2022-12-15T14:01:03.721Z,3.62
2022-12-15T14:03:31.929Z,3.41
2022-12-15T14:06:00.903Z,3.33
2022-12-15T14:08:31.385Z,3.24
2022-12-15T14:11:07.030Z,3.12
2022-12-15T14:13:50.487Z,3.01
2022-12-15T14:16:22.904Z,3.05
2022-12-15T14:19:05.733Z,3.13
2022-12-15T14:21:33.383Z,3.21
2022-12-15T14:24:37.055Z,3.16
2022-12-15T14:26:50.517Z,3.08
2022-12-15T14:29:19.891Z,3.11
2022-12-15T14:31:51.915Z,3.13
2022-12-15T14:34:30.234Z,3.13
2022-12-15T14:37:02.461Z,3.11
2022-12-15T14:39:37.376Z,3.04
2022-12-15T14:42:07.585Z,3.07
2022-12-15T14:44:40.515Z,3.10
2022-12-15T14:47:21.418Z,3.14
2022-12-15T14:49:49.509Z,3.17
2022-12-15T14:52:29.201Z,3.18
2022-12-15T14:54:58.839Z,3.17
2022-12-15T14:57:29.253Z,3.13
2022-12-15T14:59:58.256Z,3.12
2022-12-15T15:02:28.515Z,2.97
2022-12-15T15:03:07.287Z,2.82
2022-12-15T15:03:07.668Z,3.85
2022-12-15T15:05:03.009Z,2.81
2022-12-15T15:07:33.076Z,2.62
2022-12-15T15:10:02.319Z,2.47
2022-12-15T15:12:43.409Z,2.35
2022-12-15T15:15:17.000Z,2.26
2022-12-15T15:17:49.599Z,2.16
2022-12-15T15:20:21.500Z,2.17
2022-12-15T15:23:04.496Z,2.15
2022-12-15T15:25:41.418Z,2.07
2022-12-15T15:28:23.009Z,1.94
2022-12-15T15:30:56.547Z,1.82
2022-12-15T15:33:26.089Z,1.70
2022-12-15T15:35:56.400Z,1.63
2022-12-15T15:38:29.646Z,1.59
2022-12-15T15:40:59.178Z,1.52
2022-12-15T15:43:28.612Z,1.47
2022-12-15T15:46:02.676Z,1.44
2022-12-15T15:48:34.901Z,1.38
2022-12-15T15:51:03.744Z,1.35
2022-12-15T15:53:33.375Z,1.32
2022-12-15T15:56:01.992Z,1.26
2022-12-15T15:58:30.023Z,1.21
2022-12-15T16:00:59.390Z,1.15
2022-12-15T16:03:27.249Z,1.04
2022-12-15T16:05:55.161Z,0.95
2022-12-15T16:08:29.231Z,0.84
2022-12-15T16:10:57.120Z,0.83
2022-12-15T16:13:26.513Z,0.69
2022-12-15T16:15:54.824Z,0.60
2022-12-15T16:18:23.825Z,0.54
2022-12-15T16:20:52.795Z,0.52
2022-12-15T16:23:23.738Z,0.54
2022-12-15T16:25:53.827Z,0.55
2022-12-15T16:28:23.033Z,0.57
2022-12-15T16:30:51.369Z,0.58
2022-12-15T16:33:20.858Z,0.61
2022-12-15T16:35:51.152Z,0.62
2022-12-15T16:38:26.403Z,0.62
2022-12-15T16:40:55.308Z,0.62
2022-12-15T16:43:24.802Z,0.63
2022-12-15T16:45:54.789Z,0.63
2022-12-15T16:48:23.050Z,0.63
2022-12-15T16:50:55.191Z,0.61
2022-12-15T16:53:27.314Z,0.60
2022-12-15T16:55:56.463Z,0.59
2022-12-15T16:58:25.886Z,0.60
2022-12-15T17:00:54.754Z,0.57
2022-12-15T17:03:25.929Z,0.48
2022-12-15T17:05:57.209Z,0.42
2022-12-15T17:08:28.047Z,0.33
2022-12-15T17:10:55.979Z,0.29
2022-12-15T17:13:36.520Z,0.19
2022-12-15T17:16:05.767Z,0.05
2022-12-15T17:18:33.969Z,-0.03
2022-12-15T17:21:07.743Z,-0.13
2022-12-15T17:23:36.361Z,-0.22
2022-12-15T17:26:27.533Z,-0.29
2022-12-15T17:28:52.538Z,-0.27
2022-12-15T17:31:21.796Z,-0.29
2022-12-15T17:33:50.066Z,-0.30
2022-12-15T17:36:22.506Z,-0.32
2022-12-15T17:38:55.361Z,-0.29
2022-12-15T17:41:57.599Z,-0.25
2022-12-15T17:44:37.176Z,-0.32
2022-12-15T17:47:07.282Z,-0.44
2022-12-15T17:49:37.612Z,-0.48
2022-12-15T17:52:16.273Z,-0.53
2022-12-15T17:54:44.051Z,-0.57
2022-12-15T17:57:12.667Z,-0.59
2022-12-15T17:59:40.168Z,-0.60
2022-12-15T18:02:11.272Z,-0.54
2022-12-15T18:04:39.017Z,-0.52
2022-12-15T18:07:21.385Z,-0.50
2022-12-15T18:09:49.771Z,-0.47
2022-12-15T18:12:19.353Z,-0.43
2022-12-15T18:14:47.060Z,-0.40
2022-12-15T18:17:15.295Z,-0.38
2022-12-15T18:19:42.934Z,-0.36
2022-12-15T18:22:15.317Z,-0.32
2022-12-15T18:24:43.204Z,-0.29
2022-12-15T18:27:21.844Z,-0.28
2022-12-15T18:29:49.607Z,-0.22
2022-12-15T18:32:18.084Z,-0.21
2022-12-15T18:34:46.615Z,-0.20
2022-12-15T18:37:17.519Z,-0.20
2022-12-15T18:39:46.044Z,-0.22
2022-12-15T18:42:16.315Z,-0.24
2022-12-15T18:44:47.437Z,-0.23
2022-12-15T18:47:17.803Z,-0.25
2022-12-15T18:49:45.968Z,-0.25
2022-12-15T18:52:18.825Z,-0.25
2022-12-15T18:54:47.943Z,-0.31
2022-12-15T18:57:27.938Z,-0.33
2022-12-15T18:59:58.368Z,-0.35
2022-12-15T19:02:26.206Z,-0.36
2022-12-15T19:04:53.998Z,-0.37
2022-12-15T19:07:23.068Z,-0.42
2022-12-15T19:09:50.871Z,-0.45
2022-12-15T19:12:18.683Z,-0.49
2022-12-15T19:14:47.481Z,-0.50
2022-12-15T19:17:35.182Z,-0.49
2022-12-15T19:20:22.408Z,-0.51
2022-12-15T19:22:53.295Z,-0.55
2022-12-15T19:25:25.740Z,-0.56
2022-12-15T19:27:58.450Z,-0.55
2022-12-15T19:30:28.191Z,-0.53
2022-12-15T19:32:56.148Z,-0.49
2022-12-15T19:35:24.720Z,-0.48
2022-12-15T19:37:55.446Z,-0.46
2022-12-15T19:40:25.387Z,-0.45
2022-12-15T19:42:55.320Z,-0.45
2022-12-15T19:45:25.409Z,-0.42
2022-12-15T19:47:53.169Z,-0.42
2022-12-15T19:50:23.286Z,-0.43
2022-12-15T19:52:55.970Z,-0.44
2022-12-15T19:55:27.526Z,-0.45
2022-12-15T19:57:55.229Z,-0.49
2022-12-15T20:00:24.774Z,-0.54
2022-12-15T20:02:54.778Z,-0.58
2022-12-15T20:05:23.947Z,-0.63
2022-12-15T20:07:54.650Z,-0.68
2022-12-15T20:10:31.240Z,-0.73
2022-12-15T20:13:00.709Z,-0.77
2022-12-15T20:15:29.030Z,-0.81
2022-12-15T20:17:57.444Z,-0.84
2022-12-15T20:20:26.958Z,-0.83
2022-12-15T20:22:58.791Z,-0.84
2022-12-15T20:25:28.868Z,-0.85
2022-12-15T20:27:57.418Z,-0.82
2022-12-15T20:30:27.206Z,-0.80
2022-12-15T20:32:55.480Z,-0.80
2022-12-15T20:35:23.512Z,-0.80
2022-12-15T20:37:52.547Z,-0.80
2022-12-15T20:40:23.778Z,-0.79
2022-12-15T20:42:52.346Z,-0.78
2022-12-15T20:45:21.908Z,-0.79
2022-12-15T20:47:52.269Z,-0.78
2022-12-15T20:50:26.973Z,-0.80
2022-12-15T20:52:55.787Z,-0.81
2022-12-15T20:55:24.800Z,-0.80
2022-12-15T20:57:52.511Z,-0.80
2022-12-15T21:00:23.980Z,-0.80
2022-12-15T21:02:55.011Z,-0.77
2022-12-15T21:05:25.393Z,-0.77
2022-12-15T21:07:53.609Z,-0.78
2022-12-15T21:10:22.237Z,-0.76
2022-12-15T21:12:51.597Z,-0.74
2022-12-15T21:15:21.810Z,-0.71
2022-12-15T21:17:57.995Z,-0.70
2022-12-15T21:20:39.665Z,-0.70
2022-12-15T21:23:18.636Z,-0.70
2022-12-15T21:25:47.191Z,-0.71
2022-12-15T21:28:16.523Z,-0.70
2022-12-15T21:30:44.931Z,-0.71
2022-12-15T21:33:12.859Z,-0.68
2022-12-15T21:35:41.601Z,-0.69
2022-12-15T21:38:25.666Z,-0.65
2022-12-15T21:40:59.314Z,-0.64
2022-12-15T21:43:31.258Z,-0.63
2022-12-15T21:45:59.696Z,-0.62
2022-12-15T21:48:44.848Z,-0.63
2022-12-15T21:51:15.171Z,-0.64
2022-12-15T21:53:46.430Z,-0.63
2022-12-15T21:56:18.143Z,-0.63
2022-12-15T21:58:49.004Z,-0.62
2022-12-15T22:01:19.683Z,-0.61
2022-12-15T22:03:51.836Z,-0.61
2022-12-15T22:06:21.645Z,-0.60
2022-12-15T22:08:49.960Z,-0.58
2022-12-15T22:11:22.086Z,-0.57
2022-12-15T22:13:52.908Z,-0.54
2022-12-15T22:16:23.670Z,-0.54
2022-12-15T22:18:54.824Z,-0.52
2022-12-15T22:21:23.110Z,-0.48
2022-12-15T22:23:51.083Z,-0.46
2022-12-15T22:26:22.727Z,-0.44
2022-12-15T22:28:52.361Z,-0.42
2022-12-15T22:31:22.567Z,-0.40
2022-12-15T22:33:50.356Z,-0.38
2022-12-15T22:36:18.042Z,-0.34
2022-12-15T22:38:46.919Z,-0.32
2022-12-15T22:41:19.561Z,-0.31
2022-12-15T22:43:52.686Z,-0.30
2022-12-15T22:46:22.874Z,-0.31
2022-12-15T22:48:52.558Z,-0.33
2022-12-15T22:51:22.930Z,-0.35
2022-12-15T22:53:50.816Z,-0.35
2022-12-15T22:56:25.618Z,-0.35
2022-12-15T22:58:59.144Z,-0.36
2022-12-15T23:01:28.167Z,-0.33
2022-12-15T23:03:56.112Z,-0.31
2022-12-15T23:06:24.220Z,-0.34
2022-12-15T23:08:55.829Z,-0.38
2022-12-15T23:11:38.699Z,-0.42
2022-12-15T23:14:09.802Z,-0.49
2022-12-15T23:16:37.989Z,-0.54
2022-12-15T23:19:07.728Z,-0.58
2022-12-15T23:21:36.923Z,-0.58
2022-12-15T23:24:04.866Z,-0.58
2022-12-15T23:26:32.816Z,-0.57
2022-12-15T23:29:00.406Z,-0.59
2022-12-15T23:31:29.495Z,-0.63
2022-12-15T23:33:57.253Z,-0.65
2022-12-15T23:36:25.094Z,-0.71
2022-12-15T23:38:55.010Z,-0.71
2022-12-15T23:41:22.752Z,-0.72
2022-12-15T23:43:51.203Z,-0.71
2022-12-15T23:46:19.653Z,-0.72
2022-12-15T23:48:48.695Z,-0.74
2022-12-15T23:51:17.614Z,-0.75
2022-12-15T23:53:46.692Z,-0.79
2022-12-15T23:56:16.349Z,-0.82
2022-12-15T23:58:45.379Z,-0.81
